Putnam Heights, Connecticut
Current Conditions -  °F | °C
As of 12:18 PM on Thursday 27 Nov 2014 (Local Time) from KIJD Reporting Station
Overcast Overcast  
Wind Chill: 32°   Ceiling: 3000
Heat Index: 37°   Visibility: 10mi
Dew Point: 29°   Wind: 6mph
Humidity: 73%   Direction: 340°NNW
Pressure: 29.95"   Gusts: NA
Location:  41.91°N, 71.8739°W
Report Text: KIJD 271718Z AUTO 34005KT 10SM SCT017 OVC030 03/M02 A2995 RMK AO2 T00281017
Loading
Personal Weather Stations






























Interactive Weather Map New forecast layout! Learn more

10-Day Weather Forecast

Advertisements
Track Severe Weather on mobile